createdAt,value
2018-07-23T00:03:03.953Z,17.8
2018-07-23T00:08:34.529Z,17.7
2018-07-23T00:14:04.092Z,17.6
2018-07-23T00:19:34.011Z,17.5
2018-07-23T00:25:08.190Z,17.4
2018-07-23T00:30:32.728Z,17.4
2018-07-23T00:36:03.307Z,17.3
2018-07-23T00:41:32.825Z,17.3
2018-07-23T00:47:03.250Z,17.2
2018-07-23T00:52:39.032Z,17.1
2018-07-23T00:58:09.293Z,17
2018-07-23T01:03:33.724Z,16.9
2018-07-23T01:09:08.216Z,16.8
2018-07-23T01:14:37.605Z,16.7
2018-07-23T01:20:08.094Z,16.7
2018-07-23T01:25:38.773Z,16.6
2018-07-23T01:31:03.834Z,16.6
2018-07-23T01:36:34.800Z,16.5
2018-07-23T01:42:04.691Z,16.5
2018-07-23T01:47:34.043Z,16.4
2018-07-23T01:53:09.480Z,16.3
2018-07-23T01:58:34.082Z,16.2
2018-07-23T02:04:04.246Z,16.2
2018-07-23T02:09:33.577Z,16.2
2018-07-23T02:15:08.938Z,16.1
2018-07-23T02:20:33.367Z,16
2018-07-23T02:20:33.872Z,16
2018-07-23T02:26:03.944Z,16
2018-07-23T02:31:38.359Z,16
2018-07-23T02:37:07.405Z,16
2018-07-23T02:42:31.777Z,16
2018-07-23T02:48:01.654Z,16.1
2018-07-23T02:53:32.077Z,16.1
2018-07-23T02:59:07.059Z,16.2
2018-07-23T03:04:31.600Z,16.3
2018-07-23T03:04:31.952Z,16.3
2018-07-23T03:10:01.663Z,16.3
2018-07-23T03:15:36.037Z,16.4
2018-07-23T03:21:06.447Z,16.3
2018-07-23T03:26:30.815Z,16.3
2018-07-23T03:32:00.309Z,16.4
2018-07-23T03:37:35.663Z,16.4
2018-07-23T03:43:01.330Z,16.5
2018-07-23T03:48:30.449Z,16.5
2018-07-23T03:54:00.203Z,16.5
2018-07-23T03:59:29.283Z,16.5
2018-07-23T04:04:59.715Z,16.6
2018-07-23T04:10:29.063Z,16.6
2018-07-23T04:15:59.487Z,16.7
2018-07-23T04:16:00.448Z,16.7
2018-07-23T04:21:28.919Z,16.8
2018-07-23T04:27:03.708Z,16.9
2018-07-23T04:32:28.870Z,16.9
2018-07-23T04:37:59.313Z,16.9
2018-07-23T04:43:30.012Z,16.9
2018-07-23T04:49:00.227Z,17
2018-07-23T04:54:34.597Z,17
2018-07-23T05:00:00.171Z,17.1
2018-07-23T05:05:29.548Z,17.3
2018-07-23T05:11:00.132Z,17.5
2018-07-23T05:16:35.014Z,17.7
2018-07-23T05:22:04.253Z,17.9
2018-07-23T05:27:29.479Z,18.1
2018-07-23T05:33:04.173Z,18.3
2018-07-23T05:38:28.117Z,18.4
2018-07-23T05:43:58.850Z,18.6
2018-07-23T05:49:29.476Z,18.8
2018-07-23T05:49:30.743Z,18.8
2018-07-23T05:55:00.675Z,19
2018-07-23T06:00:30.877Z,19.2
2018-07-23T06:06:01.564Z,19.3
2018-07-23T06:11:37.633Z,19.3
2018-07-23T06:17:03.538Z,19.4
2018-07-23T06:22:39.166Z,19.4
2018-07-23T06:28:04.721Z,19.4
2018-07-23T06:33:34.235Z,19.4
2018-07-23T06:39:04.207Z,19.4
2018-07-23T06:44:33.972Z,19.5
2018-07-23T06:50:04.375Z,19.6
2018-07-23T06:55:40.434Z,19.8
2018-07-23T07:01:05.084Z,19.8
2018-07-23T07:06:35.719Z,20
2018-07-23T07:12:06.152Z,20.1
2018-07-23T07:17:40.176Z,20.2
2018-07-23T07:23:05.221Z,20.3
2018-07-23T07:28:40.794Z,20.4
2018-07-23T07:34:05.865Z,20.5
2018-07-23T07:39:35.481Z,20.6
2018-07-23T07:45:05.363Z,20.7
2018-07-23T07:50:35.432Z,20.8
2018-07-23T07:56:06.020Z,21
2018-07-23T08:01:36.297Z,21
2018-07-23T08:07:06.850Z,21.1
2018-07-23T08:12:42.824Z,21.3
2018-07-23T08:18:08.032Z,21.5
2018-07-23T08:23:38.583Z,21.4
2018-07-23T08:29:08.881Z,21.2
2018-07-23T08:34:38.454Z,21.1
2018-07-23T08:45:38.219Z,21
2018-07-23T08:51:08.082Z,20.9
2018-07-23T08:56:43.947Z,21
2018-07-23T09:02:10.183Z,21
2018-07-23T09:07:41.092Z,21
2018-07-23T09:13:10.577Z,21.1
2018-07-23T09:18:45.463Z,21.1
2018-07-23T09:24:10.887Z,21.2
2018-07-23T09:29:41.288Z,21.1
2018-07-23T09:35:11.305Z,21.1
2018-07-23T09:40:46.596Z,21.1
2018-07-23T09:46:11.002Z,21.3
2018-07-23T09:51:41.946Z,21.5
2018-07-23T09:57:16.958Z,21.7
2018-07-23T10:02:48.178Z,21.8
2018-07-23T10:08:12.882Z,21.8
2018-07-23T10:13:42.893Z,21.9
2018-07-23T10:19:18.215Z,22.1
2018-07-23T10:24:42.956Z,22.1
2018-07-23T10:30:13.957Z,22.1
2018-07-23T10:35:45.340Z,22.2
2018-07-23T10:41:16.177Z,22.4
2018-07-23T10:46:47.456Z,22.5
2018-07-23T10:52:17.164Z,22.6
2018-07-23T10:57:47.331Z,22.7
2018-07-23T11:03:23.483Z,22.7
2018-07-23T11:08:48.809Z,22.7
2018-07-23T11:14:19.613Z,22.8
2018-07-23T11:19:51.193Z,22.8
2018-07-23T11:19:55.652Z,22.8
2018-07-23T11:25:39.086Z,22.9
2018-07-23T11:30:50.874Z,23.1
2018-07-23T11:36:26.074Z,23.2
2018-07-23T11:41:57.528Z,23.2
2018-07-23T11:47:22.310Z,23.4
2018-07-23T11:52:53.264Z,23.6
2018-07-23T11:52:58.082Z,23.6
2018-07-23T11:58:24.220Z,23.9
2018-07-23T12:04:00.295Z,24
2018-07-23T12:09:26.246Z,24.1
2018-07-23T12:09:27.000Z,24.1
2018-07-23T12:15:01.814Z,24.3
2018-07-23T12:20:27.795Z,24.4
2018-07-23T12:25:58.628Z,24.4
2018-07-23T12:31:29.554Z,24.4
2018-07-23T12:37:05.060Z,24.4
2018-07-23T12:42:36.260Z,24.5
2018-07-23T12:48:01.416Z,24.6
2018-07-23T12:53:31.719Z,24.7
2018-07-23T12:59:08.064Z,24.8
2018-07-23T13:04:34.375Z,24.9
2018-07-23T13:10:06.014Z,25
2018-07-23T13:15:36.414Z,25.1
2018-07-23T13:21:12.552Z,25.2
2018-07-23T13:26:39.175Z,25.1
2018-07-23T13:32:09.293Z,25.1
2018-07-23T13:37:39.729Z,25.1
2018-07-23T13:43:11.088Z,25.2
2018-07-23T13:48:42.583Z,25.2
2018-07-23T13:54:13.128Z,25.3
2018-07-23T13:59:48.579Z,25.3
2018-07-23T14:05:15.041Z,25.3
2018-07-23T14:10:45.319Z,25.4
2018-07-23T14:16:20.618Z,25.4
2018-07-23T14:21:51.085Z,25.5
2018-07-23T14:27:17.508Z,25.6
2018-07-23T14:32:53.971Z,25.6
2018-07-23T14:38:20.931Z,25.5
2018-07-23T14:38:25.828Z,25.5
2018-07-23T14:43:55.997Z,25.5
2018-07-23T14:49:21.198Z,25.4
2018-07-23T14:54:52.682Z,25.5
2018-07-23T15:11:27.039Z,25.5
2018-07-23T15:17:02.463Z,25.5
2018-07-23T15:22:29.122Z,25.5
2018-07-23T15:27:59.299Z,25.5
2018-07-23T15:33:34.751Z,25.5
2018-07-23T15:39:00.503Z,25.5
2018-07-23T15:44:37.273Z,25.4
2018-07-23T15:50:07.177Z,25.4
2018-07-23T15:55:38.480Z,25.4
2018-07-23T16:01:09.885Z,25.4
2018-07-23T16:06:35.391Z,25.3
2018-07-23T16:12:06.768Z,25.3
2018-07-23T16:17:38.213Z,25.3
2018-07-23T16:23:08.594Z,25.2
2018-07-23T16:28:38.970Z,25.2
2018-07-23T16:34:14.077Z,25.2
2018-07-23T16:34:15.361Z,25.2
2018-07-23T16:39:41.800Z,25.3
2018-07-23T16:45:13.437Z,25.3
2018-07-23T16:50:48.781Z,25.3
2018-07-23T16:56:15.119Z,25.4
2018-07-23T16:56:16.046Z,25.4
2018-07-23T17:01:51.945Z,25.4
2018-07-23T17:07:18.055Z,25.3
2018-07-23T17:12:48.367Z,25.2
2018-07-23T17:18:19.777Z,25.2
2018-07-23T17:23:51.494Z,25.2
2018-07-23T17:29:21.604Z,25.1
2018-07-23T17:34:52.218Z,24.9
2018-07-23T17:40:28.302Z,24.7
2018-07-23T17:45:53.623Z,24.5
2018-07-23T17:51:25.235Z,24.4
2018-07-23T17:56:55.316Z,24.2
2018-07-23T18:02:26.519Z,23.9
2018-07-23T18:07:58.024Z,23.5
2018-07-23T18:13:27.934Z,23
2018-07-23T18:19:02.933Z,22.7
2018-07-23T18:24:27.983Z,22.4
2018-07-23T18:29:59.026Z,22.3
2018-07-23T18:35:29.807Z,22.2
2018-07-23T18:40:59.270Z,22.1
2018-07-23T18:46:35.019Z,22
2018-07-23T18:52:01.098Z,21.9
2018-07-23T18:57:32.048Z,21.8
2018-07-23T19:03:02.356Z,21.8
2018-07-23T19:08:31.962Z,21.7
2018-07-23T19:14:03.052Z,21.6
2018-07-23T19:19:32.906Z,21.6
2018-07-23T19:25:08.861Z,21.5
2018-07-23T19:30:33.741Z,21.5
2018-07-23T19:36:04.648Z,21.4
2018-07-23T19:41:35.707Z,21.3
2018-07-23T19:47:06.498Z,21.3
2018-07-23T19:52:42.484Z,21.2
2018-07-23T19:58:07.588Z,21.1
2018-07-23T20:03:37.235Z,21
2018-07-23T20:09:08.368Z,20.9
2018-07-23T20:14:38.013Z,20.8
2018-07-23T20:20:12.316Z,20.8
2018-07-23T20:20:14.094Z,20.8
2018-07-23T20:25:44.953Z,20.7
2018-07-23T20:31:15.453Z,20.6
2018-07-23T20:36:45.380Z,20.6
2018-07-23T20:42:11.657Z,20.5
2018-07-23T20:42:16.382Z,20.5
2018-07-23T20:47:45.939Z,20.4
2018-07-23T20:53:10.730Z,20.3
2018-07-23T20:58:41.560Z,20.1
2018-07-23T21:04:12.272Z,20.1
2018-07-23T21:09:43.155Z,20
2018-07-23T21:15:17.836Z,19.9
2018-07-23T21:20:43.517Z,19.9
2018-07-23T21:26:14.259Z,19.8
2018-07-23T21:31:49.120Z,19.8
2018-07-23T21:37:18.814Z,19.7
2018-07-23T21:42:43.631Z,19.6
2018-07-23T21:48:14.189Z,19.5
2018-07-23T21:53:44.940Z,19.4
2018-07-23T21:59:15.632Z,19.3
2018-07-23T22:04:45.663Z,19.2
2018-07-23T22:10:16.304Z,19.1
2018-07-23T22:15:45.743Z,19.1
2018-07-23T22:21:16.449Z,19.1
2018-07-23T22:26:46.760Z,19.1
2018-07-23T22:32:21.070Z,19
2018-07-23T22:37:51.472Z,19
2018-07-23T22:43:17.181Z,18.9
2018-07-23T22:48:46.822Z,18.8
2018-07-23T22:54:21.506Z,18.6
2018-07-23T22:59:46.138Z,18.4
2018-07-23T23:05:17.070Z,18.3
2018-07-23T23:10:51.396Z,18.3
2018-07-23T23:16:16.858Z,18.3
2018-07-23T23:21:47.503Z,18.3
2018-07-23T23:27:22.217Z,18.2
2018-07-23T23:32:47.611Z,18.1
2018-07-23T23:38:18.455Z,18
2018-07-23T23:43:49.017Z,17.9
2018-07-23T23:43:50.102Z,17.9
2018-07-23T23:49:23.548Z,17.9
2018-07-23T23:54:47.838Z,17.9
